createdAt,value
2019-05-05T00:01:57.486Z,99.90
2019-05-05T00:04:45.708Z,99.90
2019-05-05T00:07:20.827Z,99.90
2019-05-05T00:09:51.290Z,99.90
2019-05-05T00:12:48.990Z,99.90
2019-05-05T00:15:48.826Z,99.90
2019-05-05T00:18:22.694Z,99.90
2019-05-05T00:20:55.094Z,99.90
2019-05-05T00:23:25.300Z,99.90
2019-05-05T00:25:55.751Z,99.90
2019-05-05T00:28:26.118Z,99.90
2019-05-05T00:30:56.607Z,99.90
2019-05-05T00:33:29.697Z,99.90
2019-05-05T00:36:00.299Z,99.90
2019-05-05T00:38:30.650Z,99.90
2019-05-05T00:41:01.099Z,99.90
2019-05-05T00:43:31.468Z,99.90
2019-05-05T00:46:08.403Z,99.90
2019-05-05T00:48:44.767Z,99.90
2019-05-05T00:51:15.325Z,99.90
2019-05-05T00:53:45.896Z,99.90
2019-05-05T00:56:16.419Z,99.90
2019-05-05T00:58:52.436Z,99.90
2019-05-05T01:01:50.749Z,99.90
2019-05-05T01:04:26.761Z,99.90
2019-05-05T01:06:57.244Z,99.90
2019-05-05T01:09:29.255Z,99.90
2019-05-05T01:11:59.725Z,99.90
2019-05-05T01:14:30.178Z,99.90
2019-05-05T01:17:00.591Z,99.90
2019-05-05T01:19:30.982Z,99.90
2019-05-05T01:22:01.420Z,99.90
2019-05-05T01:24:31.901Z,99.90
2019-05-05T01:27:04.124Z,99.90
2019-05-05T01:29:34.733Z,99.90
2019-05-05T01:32:06.658Z,99.90
2019-05-05T01:34:44.391Z,99.90
2019-05-05T01:37:30.062Z,99.90
2019-05-05T01:40:44.684Z,99.90
2019-05-05T01:43:19.279Z,99.90
2019-05-05T01:45:49.618Z,99.90
2019-05-05T01:48:24.754Z,99.90
2019-05-05T01:50:54.417Z,99.90
2019-05-05T01:53:24.944Z,99.90
2019-05-05T01:55:55.703Z,99.90
2019-05-05T01:58:26.427Z,99.90
2019-05-05T02:00:56.750Z,99.90
2019-05-05T02:03:26.988Z,99.90
2019-05-05T02:05:57.343Z,99.90
2019-05-05T02:08:27.691Z,99.90
2019-05-05T02:10:58.183Z,99.90
2019-05-05T02:13:28.522Z,99.90
2019-05-05T02:15:58.967Z,99.90
2019-05-05T02:18:29.512Z,99.90
2019-05-05T02:21:05.136Z,99.90
2019-05-05T02:23:37.578Z,99.90
2019-05-05T02:26:09.200Z,99.90
2019-05-05T02:29:04.974Z,99.90
2019-05-05T02:31:55.197Z,99.90
2019-05-05T02:34:26.213Z,99.90
2019-05-05T02:36:56.687Z,99.90
2019-05-05T02:39:27.125Z,99.90
2019-05-05T02:41:57.767Z,99.90
2019-05-05T02:44:28.540Z,99.90
2019-05-05T02:47:08.004Z,99.90
2019-05-05T02:49:38.564Z,99.90
2019-05-05T02:52:09.010Z,99.90
2019-05-05T02:54:39.778Z,99.90
2019-05-05T02:57:11.029Z,99.90
2019-05-05T02:59:50.186Z,99.90
2019-05-05T03:02:23.691Z,99.90
2019-05-05T03:04:54.503Z,99.90
2019-05-05T03:07:26.295Z,99.90
2019-05-05T03:09:57.982Z,99.90
2019-05-05T03:12:29.137Z,99.90
2019-05-05T03:14:59.687Z,99.90
2019-05-05T03:17:30.244Z,99.90
2019-05-05T03:20:00.699Z,99.90
2019-05-05T03:22:30.980Z,99.90
2019-05-05T03:25:01.471Z,99.90
2019-05-05T03:27:34.004Z,99.90
2019-05-05T03:30:05.194Z,99.90
2019-05-05T03:32:36.227Z,99.90
2019-05-05T03:35:07.056Z,99.90
2019-05-05T03:37:37.478Z,99.90
2019-05-05T03:40:14.954Z,99.90
2019-05-05T03:42:54.595Z,99.90
2019-05-05T03:45:44.371Z,99.90
2019-05-05T03:48:15.103Z,99.90
2019-05-05T03:50:45.550Z,99.90
2019-05-05T03:53:16.507Z,99.90
2019-05-05T03:55:46.872Z,99.90
2019-05-05T03:58:17.428Z,99.90
2019-05-05T04:01:50.266Z,99.90
2019-05-05T04:04:28.247Z,99.90
2019-05-05T04:06:58.582Z,99.90
2019-05-05T04:09:29.063Z,99.90
2019-05-05T04:11:59.430Z,99.90
2019-05-05T04:14:29.782Z,99.90
2019-05-05T04:17:10.655Z,99.90
2019-05-05T04:19:43.719Z,99.90
2019-05-05T04:22:14.142Z,99.90
2019-05-05T04:24:44.503Z,99.90
2019-05-05T04:27:14.893Z,99.90
2019-05-05T04:29:45.236Z,99.90
2019-05-05T04:32:15.707Z,99.90
2019-05-05T04:34:46.070Z,99.90
2019-05-05T04:37:16.615Z,99.90
2019-05-05T04:39:47.083Z,99.90
2019-05-05T04:42:18.855Z,99.90
2019-05-05T04:44:49.167Z,99.90
2019-05-05T04:47:25.199Z,99.90
2019-05-05T04:50:15.583Z,99.90
2019-05-05T04:52:45.442Z,99.90
2019-05-05T04:55:15.867Z,99.90
2019-05-05T04:57:46.255Z,99.90
2019-05-05T05:00:16.916Z,99.90
2019-05-05T05:03:01.874Z,99.90
2019-05-05T05:05:53.091Z,99.90
2019-05-05T05:08:24.764Z,99.90
2019-05-05T05:10:55.408Z,99.90
2019-05-05T05:13:25.738Z,99.90
2019-05-05T05:15:56.115Z,99.90
2019-05-05T05:18:26.462Z,99.90
2019-05-05T05:20:56.873Z,99.90
2019-05-05T05:23:29.617Z,99.90
2019-05-05T05:25:59.427Z,99.90
2019-05-05T05:28:29.887Z,99.90
2019-05-05T05:31:00.366Z,99.90
2019-05-05T05:33:30.822Z,99.90
2019-05-05T05:36:01.257Z,99.90
2019-05-05T05:38:31.739Z,99.90
2019-05-05T05:41:13.494Z,99.90
2019-05-05T05:44:09.607Z,99.90
2019-05-05T05:47:17.346Z,99.90
2019-05-05T05:49:54.343Z,99.90
2019-05-05T05:52:24.381Z,99.90
2019-05-05T05:54:54.835Z,99.90
2019-05-05T05:57:25.121Z,99.90
2019-05-05T05:59:55.555Z,99.90
2019-05-05T06:02:26.040Z,99.90
2019-05-05T06:04:56.395Z,99.90
2019-05-05T06:07:26.883Z,99.90
2019-05-05T06:09:57.314Z,99.90
2019-05-05T06:12:27.670Z,99.90
2019-05-05T06:14:58.040Z,99.90
2019-05-05T06:17:28.508Z,99.90
2019-05-05T06:19:58.863Z,99.90
2019-05-05T06:22:31.477Z,99.90
2019-05-05T06:25:01.287Z,99.90
2019-05-05T06:27:34.000Z,99.90
2019-05-05T06:30:04.490Z,99.90
2019-05-05T06:32:35.178Z,99.90
2019-05-05T06:35:05.570Z,99.90
2019-05-05T06:37:35.950Z,99.90
2019-05-05T06:40:08.096Z,99.90
2019-05-05T06:42:57.031Z,99.90
2019-05-05T06:45:35.246Z,99.90
2019-05-05T06:48:05.636Z,99.90
2019-05-05T06:50:36.159Z,99.90
2019-05-05T06:53:06.620Z,99.90
2019-05-05T06:55:36.983Z,99.90
2019-05-05T06:58:07.440Z,99.90
2019-05-05T07:00:37.889Z,99.90
2019-05-05T07:03:08.243Z,99.90
2019-05-05T07:05:38.639Z,99.90
2019-05-05T07:08:09.098Z,99.90
2019-05-05T07:10:39.472Z,99.90
2019-05-05T07:13:09.839Z,99.90
2019-05-05T07:15:40.194Z,99.90
2019-05-05T07:18:10.682Z,99.90
2019-05-05T07:20:41.071Z,99.90
2019-05-05T07:23:11.475Z,99.90
2019-05-05T07:25:43.751Z,99.90
2019-05-05T07:28:14.656Z,99.90
2019-05-05T07:30:45.363Z,99.90
2019-05-05T07:33:15.748Z,99.90
2019-05-05T07:35:56.836Z,99.90
2019-05-05T07:38:24.417Z,99.90
2019-05-05T07:40:54.915Z,99.90
2019-05-05T07:43:25.402Z,99.90
2019-05-05T07:45:55.842Z,99.90
2019-05-05T07:48:26.299Z,99.90
2019-05-05T07:51:01.852Z,99.90
2019-05-05T07:53:28.769Z,99.90
2019-05-05T07:55:59.166Z,99.90
2019-05-05T07:58:29.527Z,99.90
2019-05-05T08:01:00.004Z,99.90
2019-05-05T08:03:30.431Z,99.90
2019-05-05T08:06:00.730Z,99.90
2019-05-05T08:08:33.367Z,99.90
2019-05-05T08:11:04.767Z,99.90
2019-05-05T08:13:35.404Z,99.90
2019-05-05T08:16:10.810Z,99.90
2019-05-05T08:18:59.010Z,99.90
2019-05-05T08:21:29.354Z,99.90
2019-05-05T08:24:11.287Z,99.90
2019-05-05T08:27:09.859Z,99.90
2019-05-05T08:29:47.882Z,99.90
2019-05-05T08:32:27.195Z,99.90
2019-05-05T08:35:00.704Z,99.90
2019-05-05T08:37:29.843Z,99.90
2019-05-05T08:40:00.210Z,99.90
2019-05-05T08:42:30.599Z,99.90
2019-05-05T08:45:01.290Z,99.90
2019-05-05T08:47:31.942Z,99.90
2019-05-05T08:50:04.119Z,99.90
2019-05-05T08:52:34.373Z,99.90
2019-05-05T08:55:05.240Z,99.90
2019-05-05T08:57:35.683Z,99.90
2019-05-05T09:00:06.367Z,99.90
2019-05-05T09:02:36.683Z,99.90
2019-05-05T09:05:07.476Z,99.90
2019-05-05T09:07:37.809Z,99.90
2019-05-05T09:10:08.338Z,99.90
2019-05-05T09:12:38.803Z,99.90
2019-05-05T09:15:09.678Z,99.90
2019-05-05T09:17:39.974Z,99.90
2019-05-05T09:20:10.314Z,99.90
2019-05-05T09:22:40.790Z,99.90
2019-05-05T09:25:19.007Z,99.90
2019-05-05T09:27:59.001Z,99.90
2019-05-05T09:30:38.418Z,99.90
2019-05-05T09:33:08.782Z,99.90
2019-05-05T09:35:39.707Z,99.90
2019-05-05T09:38:10.451Z,99.90
2019-05-05T09:40:43.813Z,99.90
2019-05-05T09:43:14.788Z,99.90
2019-05-05T09:45:45.464Z,99.90
2019-05-05T09:48:15.810Z,99.90
2019-05-05T09:50:46.243Z,99.90
2019-05-05T09:53:16.599Z,99.20
2019-05-05T09:55:47.158Z,98.30
2019-05-05T09:58:17.538Z,99.40
2019-05-05T10:00:48.006Z,97.30
2019-05-05T10:03:18.343Z,99.90
2019-05-05T10:05:48.694Z,99.90
2019-05-05T10:08:19.042Z,99.90
2019-05-05T10:10:49.707Z,99.90
2019-05-05T10:13:20.397Z,99.90
2019-05-05T10:15:50.895Z,99.90
2019-05-05T10:18:21.252Z,99.90
2019-05-05T10:20:53.994Z,99.90
2019-05-05T10:23:25.430Z,99.90
2019-05-05T10:26:00.607Z,99.90
2019-05-05T10:28:30.983Z,99.90
2019-05-05T10:31:01.729Z,99.90
2019-05-05T10:33:32.091Z,99.90
2019-05-05T10:36:02.428Z,99.30
2019-05-05T10:38:34.202Z,99.30
2019-05-05T10:41:04.630Z,99.50
2019-05-05T10:43:35.087Z,99.10
2019-05-05T10:46:05.423Z,97.30
2019-05-05T10:48:35.792Z,97.00
2019-05-05T10:51:07.738Z,98.70
2019-05-05T10:53:38.071Z,98.10
2019-05-05T10:56:08.415Z,99.50
2019-05-05T10:58:39.006Z,97.80
2019-05-05T11:01:09.350Z,99.50
2019-05-05T11:03:39.729Z,99.90
2019-05-05T11:06:10.134Z,99.90
2019-05-05T11:08:40.467Z,99.90
2019-05-05T11:11:10.805Z,99.90
2019-05-05T11:13:42.911Z,96.10
2019-05-05T11:16:14.483Z,98.30
2019-05-05T11:18:45.292Z,99.80
2019-05-05T11:21:15.722Z,99.10
2019-05-05T11:23:46.138Z,98.60
2019-05-05T11:26:17.476Z,97.40
2019-05-05T11:28:47.935Z,96.70
2019-05-05T11:31:18.400Z,97.10
2019-05-05T11:34:11.003Z,98.20
2019-05-05T11:37:10.327Z,98.20
2019-05-05T11:39:40.695Z,99.70
2019-05-05T11:42:11.382Z,99.90
2019-05-05T11:44:41.750Z,99.80
2019-05-05T11:47:13.923Z,98.60
2019-05-05T11:49:44.232Z,99.10
2019-05-05T11:52:14.527Z,98.50
2019-05-05T11:54:44.982Z,97.30
2019-05-05T11:57:15.410Z,97.70
2019-05-05T11:59:45.867Z,97.90
2019-05-05T12:02:16.218Z,98.50
2019-05-05T12:04:46.606Z,95.40
2019-05-05T12:07:17.039Z,98.00
2019-05-05T12:09:56.787Z,99.80
2019-05-05T12:12:27.169Z,99.90
2019-05-05T12:14:57.609Z,96.90
2019-05-05T12:17:34.965Z,99.90
2019-05-05T12:20:08.839Z,99.90
2019-05-05T12:22:39.213Z,96.30
2019-05-05T12:25:28.913Z,99.50
2019-05-05T12:28:04.383Z,99.40
2019-05-05T12:30:34.871Z,96.30
2019-05-05T12:33:05.431Z,95.90
2019-05-05T12:35:35.912Z,92.90
2019-05-05T12:38:06.406Z,93.30
2019-05-05T12:40:36.758Z,95.70
2019-05-05T12:43:07.126Z,94.00
2019-05-05T12:45:39.372Z,92.00
2019-05-05T12:48:17.723Z,94.60
2019-05-05T12:50:48.070Z,96.10
2019-05-05T12:53:18.538Z,95.60
2019-05-05T12:55:48.987Z,94.70
2019-05-05T12:58:19.525Z,90.90
2019-05-05T13:01:00.362Z,90.90
2019-05-05T13:03:30.810Z,89.70
2019-05-05T13:06:01.269Z,83.50
2019-05-05T13:08:31.623Z,89.20
2019-05-05T13:11:03.963Z,89.50
2019-05-05T13:13:34.602Z,90.80
2019-05-05T13:16:05.219Z,90.20
2019-05-05T13:18:35.562Z,90.80
2019-05-05T13:21:16.265Z,89.50
2019-05-05T13:23:56.163Z,87.10
2019-05-05T13:26:49.182Z,90.10
2019-05-05T13:29:19.550Z,89.50
2019-05-05T13:31:49.997Z,92.00
2019-05-05T13:34:20.455Z,92.60
2019-05-05T13:36:50.926Z,92.70
2019-05-05T13:39:21.287Z,93.20
2019-05-05T13:41:53.636Z,91.90
2019-05-05T13:44:48.898Z,88.40
2019-05-05T13:47:19.405Z,92.30
2019-05-05T13:49:49.891Z,92.10
2019-05-05T13:52:20.441Z,92.60
2019-05-05T13:54:50.858Z,89.90
2019-05-05T13:57:21.560Z,88.00
2019-05-05T13:59:51.899Z,91.10
2019-05-05T14:02:24.272Z,91.50
2019-05-05T14:04:54.554Z,90.80
2019-05-05T14:07:25.002Z,87.10
2019-05-05T14:09:55.287Z,87.50
2019-05-05T14:12:25.791Z,89.30
2019-05-05T14:14:56.546Z,89.40
2019-05-05T14:17:26.899Z,87.10
2019-05-05T14:20:05.228Z,86.60
2019-05-05T14:22:29.571Z,85.10
2019-05-05T14:25:06.774Z,87.20
2019-05-05T14:27:37.274Z,90.80
2019-05-05T14:30:17.939Z,89.90
2019-05-05T14:32:48.443Z,90.20
2019-05-05T14:35:34.221Z,91.60
2019-05-05T14:38:08.170Z,88.40
2019-05-05T14:40:38.682Z,88.10
2019-05-05T14:43:09.160Z,88.00
2019-05-05T14:45:39.587Z,86.30
2019-05-05T14:48:11.415Z,88.50
2019-05-05T14:50:44.471Z,90.40
2019-05-05T14:53:16.550Z,88.20
2019-05-05T14:55:47.078Z,85.30
2019-05-05T14:58:17.602Z,83.70
2019-05-05T15:00:47.990Z,87.30
2019-05-05T15:03:18.527Z,84.10
2019-05-05T15:05:55.474Z,83.90
2019-05-05T15:08:54.477Z,83.70
2019-05-05T15:11:44.524Z,82.50
2019-05-05T15:14:14.618Z,85.10
2019-05-05T15:16:45.190Z,84.90
2019-05-05T15:19:15.871Z,86.20
2019-05-05T15:21:48.738Z,84.60
2019-05-05T15:24:18.165Z,83.40
2019-05-05T15:26:52.095Z,85.10
2019-05-05T15:29:20.634Z,93.90
2019-05-05T15:31:51.182Z,93.90
2019-05-05T15:34:23.896Z,89.00
2019-05-05T15:36:54.677Z,90.30
2019-05-05T15:39:26.581Z,90.60
2019-05-05T15:41:56.927Z,92.30
2019-05-05T15:44:27.374Z,93.90
2019-05-05T15:46:59.211Z,93.70
2019-05-05T15:49:29.662Z,93.90
2019-05-05T15:52:00.444Z,91.60
2019-05-05T15:54:30.862Z,91.90
2019-05-05T15:57:05.453Z,91.60
2019-05-05T15:59:34.306Z,91.40
2019-05-05T16:02:04.843Z,87.80
2019-05-05T16:04:35.291Z,85.90
2019-05-05T16:07:05.890Z,90.00
2019-05-05T16:09:36.242Z,87.20
2019-05-05T16:12:06.599Z,90.00
2019-05-05T16:14:40.047Z,90.20
2019-05-05T16:17:29.655Z,91.20
2019-05-05T16:20:10.702Z,90.60
2019-05-05T16:22:50.682Z,90.60
2019-05-05T16:25:21.159Z,90.90
2019-05-05T16:27:52.428Z,91.50
2019-05-05T16:30:23.557Z,89.00
2019-05-05T16:32:55.204Z,88.80
2019-05-05T16:35:26.545Z,89.40
2019-05-05T16:37:58.441Z,90.50
2019-05-05T16:40:30.779Z,92.00
2019-05-05T16:43:01.761Z,91.50
2019-05-05T16:45:34.044Z,91.50
2019-05-05T16:48:05.244Z,91.30
2019-05-05T16:50:36.917Z,92.10
2019-05-05T16:53:08.853Z,94.30
2019-05-05T16:55:54.826Z,99.80
2019-05-05T16:58:25.335Z,92.60
2019-05-05T17:00:55.782Z,93.60
2019-05-05T17:03:26.247Z,95.90
2019-05-05T17:05:58.114Z,96.70
2019-05-05T17:08:29.281Z,97.90
2019-05-05T17:10:59.634Z,97.50
2019-05-05T17:13:47.635Z,99.00
2019-05-05T17:16:39.826Z,99.10
2019-05-05T17:19:18.419Z,97.10
2019-05-05T17:22:06.578Z,96.10
2019-05-05T17:24:38.795Z,97.90
2019-05-05T17:27:09.356Z,99.90
2019-05-05T17:29:39.731Z,99.90
2019-05-05T17:32:10.345Z,99.90
2019-05-05T17:34:40.758Z,99.90
2019-05-05T17:37:11.110Z,99.90
2019-05-05T17:39:48.950Z,99.90
2019-05-05T17:42:41.490Z,99.90
2019-05-05T17:45:15.770Z,99.90
2019-05-05T17:47:54.762Z,99.90
2019-05-05T17:50:47.530Z,99.60
2019-05-05T17:53:23.999Z,98.50
2019-05-05T17:55:54.969Z,99.90
2019-05-05T17:58:27.645Z,99.90
2019-05-05T18:01:00.576Z,99.90
2019-05-05T18:03:31.393Z,99.90
2019-05-05T18:06:27.275Z,99.90
2019-05-05T18:09:09.196Z,99.90
2019-05-05T18:12:17.081Z,99.90
2019-05-05T18:14:47.575Z,99.90
2019-05-05T18:17:18.191Z,99.90
2019-05-05T18:19:48.939Z,99.90
2019-05-05T18:22:19.472Z,99.90
2019-05-05T18:24:50.105Z,99.90
2019-05-05T18:27:20.746Z,99.90
2019-05-05T18:29:51.135Z,99.90
2019-05-05T18:32:23.439Z,99.90
2019-05-05T18:34:54.536Z,99.90
2019-05-05T18:37:25.056Z,99.90
2019-05-05T18:39:55.575Z,99.90
2019-05-05T18:42:26.010Z,99.90
2019-05-05T18:45:03.720Z,99.90
2019-05-05T18:47:34.423Z,99.90
2019-05-05T18:50:05.485Z,99.90
2019-05-05T18:52:35.833Z,99.90
2019-05-05T18:55:06.960Z,99.90
2019-05-05T18:57:37.569Z,99.90
2019-05-05T19:00:09.835Z,99.90
2019-05-05T19:02:48.549Z,99.90
2019-05-05T19:05:28.838Z,99.90
2019-05-05T19:08:06.261Z,99.90
2019-05-05T19:10:36.614Z,99.90
2019-05-05T19:13:07.033Z,99.90
2019-05-05T19:15:37.453Z,99.90
2019-05-05T19:18:07.816Z,99.90
2019-05-05T19:20:47.747Z,99.90
2019-05-05T19:23:18.165Z,99.90
2019-05-05T19:25:48.627Z,99.90
2019-05-05T19:28:19.239Z,99.90
2019-05-05T19:30:49.584Z,99.90
2019-05-05T19:33:20.043Z,99.90
2019-05-05T19:35:50.435Z,99.90
2019-05-05T19:38:21.004Z,99.90
2019-05-05T19:40:51.588Z,99.90
2019-05-05T19:43:22.010Z,99.90
2019-05-05T19:45:52.575Z,99.90
2019-05-05T19:48:24.481Z,99.90
2019-05-05T19:51:01.224Z,99.90
2019-05-05T19:53:35.267Z,99.90
2019-05-05T19:56:04.157Z,99.90
2019-05-05T19:58:36.541Z,99.90
2019-05-05T20:01:06.530Z,99.90
2019-05-05T20:03:36.894Z,99.90
2019-05-05T20:06:07.280Z,99.90
2019-05-05T20:08:41.717Z,99.90
2019-05-05T20:11:09.717Z,99.90
2019-05-05T20:13:40.157Z,99.90
2019-05-05T20:16:24.281Z,99.90
2019-05-05T20:18:54.784Z,99.90
2019-05-05T20:21:25.190Z,99.90
2019-05-05T20:23:55.538Z,99.90
2019-05-05T20:26:26.003Z,99.90
2019-05-05T20:29:09.688Z,99.90
2019-05-05T20:31:28.563Z,99.90
2019-05-05T20:34:18.164Z,99.90
2019-05-05T20:37:06.030Z,99.90
2019-05-05T20:39:36.486Z,99.90
2019-05-05T20:42:06.887Z,99.90
2019-05-05T20:44:37.612Z,99.90
2019-05-05T20:47:07.915Z,99.90
2019-05-05T20:49:38.395Z,99.90
2019-05-05T20:52:08.847Z,99.90
2019-05-05T20:54:39.375Z,99.90
2019-05-05T20:57:09.789Z,99.90
2019-05-05T20:59:40.183Z,99.90
2019-05-05T21:02:10.583Z,99.90
2019-05-05T21:04:40.972Z,99.90
2019-05-05T21:07:11.406Z,99.90
2019-05-05T21:09:41.877Z,99.90
2019-05-05T21:12:13.831Z,99.90
2019-05-05T21:14:44.772Z,99.90
2019-05-05T21:17:15.376Z,99.90
2019-05-05T21:19:45.804Z,99.90
2019-05-05T21:22:35.566Z,99.90
2019-05-05T21:25:07.519Z,99.90
2019-05-05T21:27:38.062Z,99.90
2019-05-05T21:30:08.530Z,99.90
2019-05-05T21:32:38.985Z,99.90
2019-05-05T21:35:09.329Z,99.90
2019-05-05T21:37:39.686Z,99.90
2019-05-05T21:40:10.711Z,99.90
2019-05-05T21:42:41.055Z,99.90
2019-05-05T21:45:11.495Z,99.90
2019-05-05T21:47:41.778Z,99.90
2019-05-05T21:50:14.441Z,99.90
2019-05-05T21:52:57.201Z,99.90
2019-05-05T21:56:04.189Z,99.90
2019-05-05T21:58:44.778Z,99.90
2019-05-05T22:01:17.576Z,99.90
2019-05-05T22:03:48.032Z,99.90
2019-05-05T22:06:18.474Z,99.90
2019-05-05T22:08:48.850Z,99.90
2019-05-05T22:11:19.190Z,99.90
2019-05-05T22:13:49.569Z,99.90
2019-05-05T22:16:19.923Z,99.90
2019-05-05T22:18:50.282Z,99.90
2019-05-05T22:21:43.841Z,99.90
2019-05-05T22:24:19.088Z,99.90
2019-05-05T22:26:49.449Z,99.90
2019-05-05T22:29:19.926Z,99.90
2019-05-05T22:31:50.228Z,99.90
2019-05-05T22:34:20.567Z,99.90
2019-05-05T22:36:51.338Z,99.90
2019-05-05T22:39:24.103Z,99.90
2019-05-05T22:41:54.327Z,99.90
2019-05-05T22:44:24.774Z,99.90
2019-05-05T22:46:55.306Z,99.90
2019-05-05T22:49:25.666Z,99.90
2019-05-05T22:51:56.124Z,99.90
2019-05-05T22:54:26.442Z,99.90
2019-05-05T22:56:58.085Z,99.90
2019-05-05T22:59:28.488Z,99.90
2019-05-05T23:01:58.854Z,99.90
2019-05-05T23:04:35.548Z,99.90
2019-05-05T23:07:28.104Z,99.90
2019-05-05T23:09:58.503Z,99.90
2019-05-05T23:12:29.106Z,99.90
2019-05-05T23:14:59.603Z,99.90
2019-05-05T23:17:54.695Z,99.90
2019-05-05T23:21:10.928Z,99.90
2019-05-05T23:24:14.183Z,99.90
2019-05-05T23:26:44.866Z,99.90
2019-05-05T23:29:15.279Z,99.90
2019-05-05T23:31:45.558Z,99.90
2019-05-05T23:34:16.163Z,99.90
2019-05-05T23:36:46.530Z,99.90
2019-05-05T23:39:16.988Z,99.90
2019-05-05T23:41:47.399Z,99.90
2019-05-05T23:44:17.951Z,99.90
2019-05-05T23:46:48.287Z,99.90
2019-05-05T23:49:19.038Z,99.90
2019-05-05T23:51:49.395Z,99.90
2019-05-05T23:54:19.762Z,99.90
2019-05-05T23:56:50.119Z,99.90
2019-05-05T23:59:20.398Z,99.90
